createdAt,value
2023-01-23T05:41:11.588Z,41.60
2023-01-23T05:46:13.397Z,42.17
2023-01-23T05:51:15.221Z,39.30
2023-01-23T05:56:16.983Z,38.57
2023-01-23T06:01:18.836Z,40.20
2023-01-23T06:06:20.388Z,39.60
2023-01-23T06:11:22.002Z,39.87
2023-01-23T06:16:23.587Z,52.10
2023-01-23T06:21:25.215Z,43.80
2023-01-23T06:26:30.050Z,46.87
2023-01-23T06:31:32.763Z,46.40
2023-01-23T06:36:34.981Z,42.47
2023-01-23T06:41:36.826Z,41.43
2023-01-23T06:46:38.903Z,40.13
2023-01-23T06:51:41.111Z,41.20
2023-01-23T06:56:42.715Z,41.10
2023-01-23T07:01:44.386Z,41.80
2023-01-23T07:06:46.126Z,42.17
2023-01-23T07:11:47.729Z,41.90
2023-01-23T07:16:50.060Z,42.23
2023-01-23T07:21:51.695Z,40.80
2023-01-23T07:26:53.589Z,39.57
2023-01-23T07:31:55.339Z,39.57
2023-01-23T07:36:57.249Z,40.03
2023-01-23T07:41:59.328Z,43.17
2023-01-23T07:47:00.985Z,42.67
2023-01-23T07:52:03.829Z,42.40
2023-01-23T07:57:05.412Z,43.07
2023-01-23T08:02:10.390Z,44.23
2023-01-23T08:07:12.667Z,43.33
2023-01-23T08:12:14.549Z,44.30
2023-01-23T08:17:16.200Z,45.07
2023-01-23T08:22:17.941Z,45.67
2023-01-23T08:27:19.590Z,47.00
2023-01-23T08:32:21.403Z,51.50
2023-01-23T08:37:23.177Z,48.37
2023-01-23T08:42:25.044Z,46.17
2023-01-23T08:47:27.565Z,45.53
2023-01-23T08:52:29.769Z,44.53
2023-01-23T08:57:31.657Z,47.43
2023-01-23T09:02:33.720Z,46.27
2023-01-23T09:07:38.011Z,48.87
2023-01-23T09:12:42.718Z,46.97
2023-01-23T09:17:44.664Z,45.00
2023-01-23T09:22:46.334Z,49.37
2023-01-23T09:27:47.935Z,48.10
2023-01-23T09:32:49.516Z,51.33
2023-01-23T09:38:00.017Z,47.97
2023-01-23T09:43:25.681Z,45.73
2023-01-23T09:48:29.979Z,47.10
2023-01-23T09:53:39.916Z,46.57
2023-01-23T09:58:48.919Z,49.77
2023-01-23T10:03:50.795Z,48.57
2023-01-23T10:09:29.925Z,48.43
2023-01-23T10:14:46.660Z,47.00
2023-01-23T10:19:51.224Z,45.77
2023-01-23T10:24:56.503Z,45.70
2023-01-23T10:30:03.537Z,46.67
2023-01-23T10:35:13.856Z,46.50
2023-01-23T10:40:15.508Z,44.30
2023-01-23T10:45:21.258Z,45.90
2023-01-23T10:50:40.259Z,44.73
2023-01-23T10:55:45.604Z,45.70
2023-01-23T11:00:47.562Z,44.57
2023-01-23T11:05:53.592Z,46.03
2023-01-23T11:11:15.726Z,43.47
2023-01-23T11:16:23.825Z,43.10
2023-01-23T11:21:32.667Z,45.70
2023-01-23T11:26:36.072Z,42.83
2023-01-23T11:31:37.843Z,44.33
2023-01-23T11:36:59.773Z,46.77
2023-01-23T11:42:02.681Z,43.13
2023-01-23T11:47:36.611Z,43.87
2023-01-23T11:53:21.191Z,42.97
2023-01-23T11:58:49.563Z,44.13
2023-01-23T12:04:19.669Z,46.17
2023-01-23T12:09:22.132Z,45.67
2023-01-23T12:14:35.727Z,45.93
2023-01-23T12:19:57.052Z,45.80
2023-01-23T12:25:20.340Z,44.53
2023-01-23T12:30:28.070Z,43.70
2023-01-23T12:35:54.467Z,43.23
2023-01-23T12:41:36.765Z,41.40
2023-01-23T12:47:10.385Z,42.03
2023-01-23T12:52:20.038Z,43.17
2023-01-23T12:57:52.530Z,42.97
2023-01-23T13:03:37.487Z,42.53
2023-01-23T13:09:18.482Z,39.67
2023-01-23T13:14:43.422Z,42.50
2023-01-23T13:20:13.258Z,40.50
2023-01-23T13:25:19.379Z,39.87
2023-01-23T13:30:27.000Z,39.07
2023-01-23T13:35:44.738Z,41.33
2023-01-23T13:41:11.395Z,41.30
2023-01-23T13:46:25.436Z,42.33
2023-01-23T14:23:59.668Z,41.67
2023-01-23T14:29:24.618Z,42.43
2023-01-23T14:34:27.040Z,42.23
2023-01-23T14:39:31.373Z,44.00
2023-01-23T14:44:39.066Z,43.33
2023-01-23T14:49:40.797Z,42.23
2023-01-23T14:54:53.375Z,43.03
2023-01-23T14:59:57.706Z,43.07
2023-01-23T15:05:20.073Z,42.13
2023-01-23T15:10:43.509Z,41.67
2023-01-23T15:15:50.809Z,40.40
2023-01-23T15:20:57.347Z,41.07
2023-01-23T15:26:12.859Z,39.80
2023-01-23T15:31:34.491Z,40.23
2023-01-23T15:36:36.388Z,39.90
2023-01-23T15:41:47.801Z,39.87
2023-01-23T15:46:49.754Z,41.63
2023-01-23T15:51:51.521Z,42.00
2023-01-23T15:57:05.363Z,41.83
2023-01-23T16:02:30.124Z,42.93
2023-01-23T16:07:52.673Z,42.63
2023-01-23T16:12:57.386Z,41.53
2023-01-23T16:18:00.075Z,43.03
2023-01-23T16:23:15.117Z,40.77
2023-01-23T16:28:23.935Z,44.07
2023-01-23T16:33:26.648Z,42.80
2023-01-23T16:38:29.270Z,41.67
2023-01-23T16:43:31.590Z,42.97
2023-01-23T16:48:33.463Z,41.17
2023-01-23T16:53:38.169Z,40.30
2023-01-23T16:58:41.372Z,39.40
2023-01-23T17:03:44.303Z,40.93
2023-01-23T17:08:46.124Z,40.67
2023-01-23T17:13:49.013Z,40.43
2023-01-23T17:18:51.589Z,40.47
2023-01-23T17:23:53.652Z,38.70
2023-01-23T17:28:55.331Z,39.10
2023-01-23T17:33:56.929Z,39.97
2023-01-23T17:38:59.791Z,40.23
2023-01-23T17:44:01.488Z,39.13
2023-01-23T17:49:04.425Z,39.50
2023-01-23T17:54:18.596Z,39.43
2023-01-23T17:59:20.270Z,38.70
2023-01-23T18:04:23.165Z,39.00
2023-01-23T18:09:24.826Z,37.73
2023-01-23T18:15:01.269Z,38.17
2023-01-23T18:20:04.078Z,39.53
2023-01-23T18:25:06.290Z,39.03
2023-01-23T18:30:11.279Z,38.07
2023-01-23T18:35:37.118Z,39.37
2023-01-23T18:41:20.124Z,38.07
2023-01-23T18:46:24.181Z,38.67
2023-01-23T18:51:54.701Z,38.50
2023-01-23T18:57:16.541Z,38.93
2023-01-23T19:03:07.618Z,38.87
2023-01-23T19:08:31.049Z,38.60
2023-01-23T19:13:44.713Z,38.50
2023-01-23T19:19:01.763Z,37.60
2023-01-23T19:24:11.308Z,39.53
2023-01-23T19:29:21.967Z,39.40
2023-01-23T19:34:24.499Z,39.97
2023-01-23T19:39:26.853Z,42.10
2023-01-23T19:44:32.173Z,41.00
2023-01-23T19:49:33.757Z,42.33
2023-01-23T19:54:36.555Z,41.83
2023-01-23T19:59:38.163Z,42.23
2023-01-23T20:04:39.739Z,39.83
2023-01-23T20:09:41.413Z,39.97
2023-01-23T20:14:42.956Z,41.77
2023-01-23T20:19:44.550Z,43.43
2023-01-23T20:24:46.344Z,39.57
2023-01-23T20:29:53.728Z,41.20
2023-01-23T20:34:55.357Z,38.47
2023-01-23T20:39:56.989Z,37.57
2023-01-23T20:44:58.555Z,38.30
2023-01-23T20:50:00.912Z,37.63
2023-01-23T20:55:03.080Z,35.80
2023-01-23T21:00:05.193Z,37.53
2023-01-23T21:05:07.293Z,37.90
2023-01-23T21:10:09.377Z,38.23
2023-01-23T21:15:11.525Z,37.27
